createdAt,value
2023-01-21T00:00:05.327Z,16.70
2023-01-21T00:05:03.642Z,16.70
2023-01-21T00:12:33.210Z,16.70
2023-01-21T00:17:35.258Z,16.70
2023-01-21T00:20:05.887Z,16.70
2023-01-21T00:22:32.849Z,16.70
2023-01-21T00:24:59.386Z,16.70
2023-01-21T00:27:25.924Z,16.70
2023-01-21T00:32:24.009Z,16.70
2023-01-21T00:39:53.512Z,16.70
2023-01-21T00:47:23.711Z,16.70
2023-01-21T00:54:53.462Z,16.70
2023-01-21T01:02:23.208Z,16.70
2023-01-21T01:12:24.111Z,16.70
2023-01-21T01:17:22.200Z,16.70
2023-01-21T01:19:48.821Z,16.70
2023-01-21T01:22:15.348Z,16.70
2023-01-21T01:24:41.953Z,16.70
2023-01-21T01:27:08.504Z,16.70
2023-01-21T01:29:35.067Z,16.70
2023-01-21T01:34:33.203Z,16.70
2023-01-21T01:36:59.793Z,16.70
2023-01-21T01:39:26.323Z,16.70
2023-01-21T01:41:53.705Z,16.70
2023-01-21T01:44:54.321Z,16.70
2023-01-21T01:47:25.600Z,16.70
2023-01-21T01:49:52.684Z,16.70
2023-01-21T01:54:55.579Z,16.70
2023-01-21T01:57:26.727Z,16.70
2023-01-21T01:59:53.283Z,16.70
2023-01-21T02:02:20.229Z,16.70
2023-01-21T02:04:56.856Z,16.70
2023-01-21T02:07:26.132Z,16.70
2023-01-21T02:09:53.501Z,16.70
2023-01-21T02:14:52.366Z,16.70
2023-01-21T02:20:44.972Z,16.70
2023-01-21T02:23:42.501Z,16.70
2023-01-21T02:26:46.887Z,16.60
2023-01-21T02:29:38.083Z,16.60
2023-01-21T02:32:39.469Z,16.70
2023-01-21T02:35:13.210Z,16.70
2023-01-21T02:37:48.054Z,16.70
2023-01-21T02:40:24.967Z,16.70
2023-01-21T02:42:59.655Z,16.60
2023-01-21T02:45:37.846Z,16.70
2023-01-21T02:48:13.717Z,16.70
2023-01-21T02:50:46.615Z,16.70
2023-01-21T02:53:25.617Z,16.70
2023-01-21T02:55:52.922Z,16.60
2023-01-21T02:58:33.236Z,16.70
2023-01-21T03:01:23.437Z,16.70
2023-01-21T03:04:04.219Z,16.70
2023-01-21T03:06:43.917Z,16.70
2023-01-21T03:09:16.372Z,16.70
2023-01-21T03:17:34.317Z,16.70
2023-01-21T03:20:24.440Z,16.60
2023-01-21T03:22:55.939Z,16.60
2023-01-21T03:25:23.313Z,16.70
2023-01-21T03:30:25.223Z,16.70
2023-01-21T03:32:54.164Z,16.70
2023-01-21T03:35:34.553Z,16.60
2023-01-21T03:38:09.791Z,16.70
2023-01-21T03:40:55.287Z,16.60
2023-01-21T03:46:04.467Z,16.60
2023-01-21T03:48:43.160Z,16.70
2023-01-21T03:51:15.464Z,16.70
2023-01-21T03:53:43.375Z,16.70
2023-01-21T03:56:09.935Z,16.70
2023-01-21T03:58:36.564Z,16.60
2023-01-21T04:01:03.256Z,16.70
2023-01-21T04:03:29.832Z,16.70
2023-01-21T04:05:56.403Z,16.70
2023-01-21T04:08:22.960Z,16.70
2023-01-21T04:10:49.500Z,16.70
2023-01-21T04:13:16.055Z,16.60
2023-01-21T04:15:42.708Z,16.70
2023-01-21T04:18:09.235Z,16.60
2023-01-21T04:20:36.777Z,16.60
2023-01-21T04:23:03.506Z,16.70
2023-01-21T04:30:33.154Z,16.70
2023-01-21T04:37:57.663Z,16.60
2023-01-21T04:40:24.238Z,16.60
2023-01-21T04:45:22.427Z,16.60
2023-01-21T04:47:48.983Z,16.60
2023-01-21T04:50:16.893Z,16.60
2023-01-21T04:52:43.755Z,16.60
2023-01-21T04:57:42.392Z,16.60
2023-01-21T05:05:12.813Z,16.60
2023-01-21T05:07:39.438Z,16.60
2023-01-21T05:10:06.209Z,16.60
2023-01-21T05:12:32.863Z,16.60
2023-01-21T05:20:03.096Z,16.60
2023-01-21T05:27:32.924Z,16.60
2023-01-21T05:35:05.991Z,16.60
2023-01-21T05:37:32.527Z,16.60
2023-01-21T05:39:59.046Z,16.60
2023-01-21T05:42:25.703Z,16.60
2023-01-21T05:44:52.402Z,16.60
2023-01-21T05:47:18.935Z,16.60
2023-01-21T05:49:45.496Z,16.60
2023-01-21T05:54:59.964Z,16.60
2023-01-21T06:05:02.456Z,16.60
2023-01-21T06:15:03.587Z,16.60
2023-01-21T06:22:33.256Z,16.60
2023-01-21T06:30:04.004Z,16.60
2023-01-21T06:35:02.448Z,16.60
2023-01-21T06:45:03.858Z,16.60
2023-01-21T06:52:33.272Z,16.60
2023-01-21T06:54:59.779Z,16.60
2023-01-21T06:57:26.358Z,16.60
2023-01-21T06:59:52.928Z,16.60
2023-01-21T07:02:19.484Z,16.60
2023-01-21T07:04:46.183Z,16.60
2023-01-21T07:07:12.755Z,16.60
2023-01-21T07:09:39.315Z,16.60
2023-01-21T07:12:05.971Z,16.60
2023-01-21T07:14:32.571Z,16.60
2023-01-21T07:16:59.080Z,16.60
2023-01-21T07:19:25.708Z,16.60
2023-01-21T07:21:53.422Z,16.60
2023-01-21T07:29:24.119Z,16.60
2023-01-21T07:34:22.845Z,16.60
2023-01-21T07:36:49.377Z,16.60
2023-01-21T07:39:16.020Z,16.60
2023-01-21T07:41:42.550Z,16.60
2023-01-21T07:44:09.537Z,16.60
2023-01-21T07:46:36.176Z,16.60
2023-01-21T07:49:02.804Z,16.60
2023-01-21T07:51:29.355Z,16.60
2023-01-21T07:53:59.392Z,16.60
2023-01-21T07:56:26.810Z,16.60
2023-01-21T07:58:53.577Z,16.60
2023-01-21T08:06:23.146Z,16.60
2023-01-21T08:13:52.626Z,16.60
2023-01-21T08:16:19.215Z,16.60
2023-01-21T08:18:45.751Z,16.60
2023-01-21T08:21:12.333Z,16.60
2023-01-21T08:23:38.941Z,16.60
2023-01-21T08:26:06.632Z,16.60
2023-01-21T08:28:34.223Z,16.60
2023-01-21T08:36:13.200Z,16.60
2023-01-21T08:41:12.139Z,16.60
2023-01-21T08:46:12.339Z,16.60
2023-01-21T08:48:39.085Z,16.60
2023-01-21T08:51:05.978Z,16.60
2023-01-21T08:53:32.681Z,16.60
2023-01-21T08:56:04.014Z,16.60
2023-01-21T09:01:08.957Z,16.60
2023-01-21T09:03:35.834Z,16.60
2023-01-21T09:06:04.076Z,16.60
2023-01-21T09:11:04.104Z,16.70
2023-01-21T09:13:37.559Z,16.60
2023-01-21T09:16:12.380Z,16.60
2023-01-21T09:23:44.254Z,16.60
2023-01-21T09:28:56.547Z,16.60
2023-01-21T09:31:25.412Z,16.70
2023-01-21T09:36:33.907Z,16.60
2023-01-21T09:44:44.626Z,16.60
2023-01-21T09:47:17.205Z,16.70
2023-01-21T09:49:52.225Z,16.60
2023-01-21T09:52:27.488Z,16.60
2023-01-21T09:54:55.687Z,16.60
2023-01-21T10:00:45.395Z,16.60
2023-01-21T10:03:37.313Z,16.70
2023-01-21T10:06:22.317Z,16.60
2023-01-21T10:08:54.628Z,16.70
2023-01-21T10:11:34.839Z,16.70
2023-01-21T10:17:26.235Z,16.60
2023-01-21T10:25:33.050Z,16.70
2023-01-21T10:28:05.030Z,16.70
2023-01-21T10:30:44.744Z,16.70
2023-01-21T10:33:24.043Z,16.70
2023-01-21T10:36:17.688Z,16.60
2023-01-21T10:39:15.246Z,16.70
2023-01-21T10:41:56.978Z,16.70
2023-01-21T10:47:45.028Z,16.70
2023-01-21T10:50:23.532Z,16.70
2023-01-21T10:53:05.334Z,16.70
2023-01-21T10:56:03.765Z,16.70
2023-01-21T10:58:53.758Z,16.70
2023-01-21T11:04:22.995Z,16.70
2023-01-21T11:09:37.124Z,16.70
2023-01-21T11:12:03.963Z,16.70
2023-01-21T11:17:02.211Z,16.70
2023-01-21T11:22:16.530Z,16.70
2023-01-21T11:24:45.671Z,16.70
2023-01-21T11:27:37.506Z,16.70
2023-01-21T11:30:25.959Z,16.70
2023-01-21T11:32:52.869Z,16.70
2023-01-21T11:35:22.625Z,16.70
2023-01-21T11:40:25.098Z,16.70
2023-01-21T11:42:54.408Z,16.80
2023-01-21T11:58:42.380Z,16.80
2023-01-21T12:28:44.827Z,16.90
2023-01-21T12:39:33.051Z,17.00
2023-01-21T12:59:25.189Z,17.10
2023-01-21T13:02:05.585Z,17.10
2023-01-21T13:07:48.943Z,17.10
2023-01-21T13:13:02.270Z,17.10
2023-01-21T13:15:33.617Z,17.10
2023-01-21T13:18:04.982Z,17.10
2023-01-21T13:23:15.766Z,17.10
2023-01-21T13:26:02.388Z,17.10
2023-01-21T13:31:42.477Z,17.10
2023-01-21T13:34:24.004Z,17.10
2023-01-21T13:44:54.999Z,17.20
2023-01-21T13:50:44.179Z,17.20
2023-01-21T13:53:33.882Z,17.20
2023-01-21T13:56:32.195Z,17.20
2023-01-21T14:13:05.788Z,17.30
2023-01-21T14:15:44.198Z,17.20
2023-01-21T14:18:25.000Z,17.20
2023-01-21T14:27:04.229Z,17.20
2023-01-21T14:35:24.347Z,17.10
2023-01-21T14:38:03.073Z,17.10
2023-01-21T14:40:32.402Z,17.10
2023-01-21T14:51:12.902Z,17.10
2023-01-21T14:59:22.496Z,17.10
2023-01-21T15:04:26.035Z,17.10
2023-01-21T15:12:42.268Z,17.10
2023-01-21T15:15:36.807Z,17.10
2023-01-21T15:20:46.958Z,17.10
2023-01-21T15:28:55.556Z,17.10
2023-01-21T15:31:23.265Z,17.00
2023-01-21T15:48:44.355Z,17.00
2023-01-21T15:51:36.273Z,17.00
2023-01-21T15:54:25.919Z,17.00
2023-01-21T15:56:56.666Z,17.00
2023-01-21T16:02:24.386Z,16.90
2023-01-21T16:05:09.242Z,16.90
2023-01-21T16:07:57.434Z,17.00
2023-01-21T16:10:55.795Z,16.90
2023-01-21T16:16:43.621Z,16.90
2023-01-21T16:21:57.695Z,16.70
2023-01-21T16:24:27.726Z,16.20
2023-01-21T16:26:54.560Z,16.00
2023-01-21T16:32:04.483Z,15.80
2023-01-21T16:37:05.952Z,15.60
2023-01-21T16:39:32.821Z,15.60
2023-01-21T16:42:02.482Z,15.50
2023-01-21T16:44:29.597Z,15.40
2023-01-21T16:46:56.209Z,15.50
2023-01-21T16:49:22.935Z,15.80
2023-01-21T16:52:03.197Z,16.00
2023-01-21T16:54:33.525Z,16.20
2023-01-21T16:57:16.772Z,16.30
2023-01-21T16:59:45.808Z,16.30
2023-01-21T17:02:32.984Z,16.40
2023-01-21T17:05:04.371Z,16.40
2023-01-21T17:10:35.547Z,16.50
2023-01-21T17:13:07.856Z,16.50
2023-01-21T17:18:25.783Z,16.50
2023-01-21T17:21:13.620Z,16.60
2023-01-21T17:23:48.704Z,16.60
2023-01-21T17:26:23.231Z,16.60
2023-01-21T17:28:58.068Z,16.60
2023-01-21T17:34:17.131Z,16.60
2023-01-21T17:36:45.682Z,16.60
2023-01-21T17:39:12.755Z,16.60
2023-01-21T17:44:19.215Z,16.60
2023-01-21T17:49:25.127Z,16.60
2023-01-21T17:51:54.423Z,16.60
2023-01-21T17:54:26.792Z,16.60
2023-01-21T17:56:58.673Z,16.60
2023-01-21T17:59:38.036Z,16.60
2023-01-21T18:02:09.579Z,16.60
2023-01-21T18:04:36.296Z,16.60
2023-01-21T18:07:03.058Z,16.60
2023-01-21T18:09:30.167Z,16.60
2023-01-21T18:11:57.972Z,16.60
2023-01-21T18:14:26.542Z,16.70
2023-01-21T18:16:54.052Z,16.60
2023-01-21T18:19:29.217Z,16.60
2023-01-21T18:21:56.388Z,16.60
2023-01-21T18:24:23.749Z,16.60
2023-01-21T18:26:50.375Z,16.60
2023-01-21T18:29:18.167Z,16.60
2023-01-21T18:31:45.829Z,16.60
2023-01-21T18:34:12.514Z,16.60
2023-01-21T18:36:39.898Z,16.70
2023-01-21T18:39:18.227Z,16.60
2023-01-21T18:41:45.958Z,16.70
2023-01-21T18:44:12.892Z,16.60
2023-01-21T18:49:19.189Z,16.70
2023-01-21T18:51:46.661Z,16.60
2023-01-21T18:54:14.708Z,16.60
2023-01-21T18:56:42.581Z,16.70
2023-01-21T18:59:14.439Z,16.60
2023-01-21T19:01:41.913Z,16.60
2023-01-21T19:09:22.831Z,16.70
2023-01-21T19:16:53.120Z,16.60
2023-01-21T19:19:22.647Z,16.60
2023-01-21T19:29:26.608Z,16.60
2023-01-21T19:31:53.170Z,16.60
2023-01-21T19:36:53.498Z,16.60
2023-01-21T19:39:23.535Z,16.60
2023-01-21T19:46:53.395Z,16.60
2023-01-21T19:49:20.110Z,16.60
2023-01-21T19:51:46.649Z,16.60
2023-01-21T19:54:13.196Z,16.60
2023-01-21T19:56:39.792Z,16.60
2023-01-21T19:59:06.669Z,16.70
2023-01-21T20:01:33.268Z,16.60
2023-01-21T20:04:01.137Z,16.60
2023-01-21T20:06:32.302Z,16.70
2023-01-21T20:14:03.239Z,16.70
2023-01-21T20:19:03.622Z,16.60
2023-01-21T20:26:35.267Z,16.70
2023-01-21T20:29:03.560Z,16.60
2023-01-21T20:31:30.591Z,16.60
2023-01-21T20:33:57.203Z,16.60
2023-01-21T20:44:03.300Z,16.60
2023-01-21T20:49:02.348Z,16.60
2023-01-21T20:56:32.784Z,16.60
2023-01-21T22:08:15.598Z,16.60
2023-01-21T22:10:42.144Z,16.60
2023-01-21T22:13:08.667Z,16.60
2023-01-21T22:15:36.107Z,16.60
2023-01-21T22:18:03.197Z,16.60
2023-01-21T22:20:29.692Z,16.60
2023-01-21T22:22:56.198Z,16.60
2023-01-21T22:25:22.782Z,16.60
2023-01-21T22:27:49.411Z,16.60
2023-01-21T22:30:16.198Z,16.60
2023-01-21T22:32:42.700Z,16.60
2023-01-21T22:35:09.405Z,16.60
2023-01-21T22:37:35.954Z,16.60
2023-01-21T22:40:02.480Z,16.60
2023-01-21T22:42:28.987Z,16.60
2023-01-21T22:44:55.558Z,16.60
2023-01-21T22:49:53.563Z,16.60
2023-01-21T22:52:20.123Z,16.60
2023-01-21T22:54:48.796Z,16.60
2023-01-21T22:57:16.017Z,16.60
2023-01-21T22:59:42.568Z,16.60
2023-01-21T23:02:09.117Z,16.60
2023-01-21T23:04:35.761Z,16.60
2023-01-21T23:07:02.303Z,16.60
2023-01-21T23:09:29.068Z,16.60
2023-01-21T23:11:56.369Z,16.60
2023-01-21T23:14:22.942Z,16.60
2023-01-21T23:16:52.406Z,16.60
2023-01-21T23:19:18.934Z,16.60
2023-01-21T23:21:45.514Z,16.60
2023-01-21T23:24:12.621Z,16.60
2023-01-21T23:26:39.248Z,16.60
2023-01-21T23:29:05.818Z,16.60
2023-01-21T23:31:32.449Z,16.60
2023-01-21T23:33:59.159Z,16.60
2023-01-21T23:36:25.731Z,16.60
2023-01-21T23:38:52.320Z,16.60
2023-01-21T23:41:20.835Z,16.60
2023-01-21T23:43:47.381Z,16.60
2023-01-21T23:46:19.596Z,16.60
2023-01-21T23:48:46.732Z,16.60
2023-01-21T23:51:14.996Z,16.60
2023-01-21T23:56:19.867Z,16.60
2023-01-21T23:58:46.643Z,16.60
